createdAt,value
2023-02-12T00:01:03.173Z,97769.56
2023-02-12T00:03:29.626Z,97782.66
2023-02-12T00:06:00.863Z,97791.09
2023-02-12T00:08:27.302Z,97779.78
2023-02-12T00:10:53.738Z,97792.88
2023-02-12T00:13:20.180Z,97745.59
2023-02-12T00:15:46.750Z,97781.66
2023-02-12T00:18:13.300Z,97785.72
2023-02-12T00:20:39.801Z,97780.59
2023-02-12T00:23:06.298Z,97779.72
2023-02-12T00:25:33.185Z,97781.97
2023-02-12T00:27:59.683Z,97778.38
2023-02-12T00:30:26.273Z,97761.16
2023-02-12T00:32:54.999Z,97776.09
2023-02-12T00:35:21.481Z,97788.44
2023-02-12T00:37:49.830Z,97777.94
2023-02-12T00:40:16.425Z,97786.19
2023-02-12T00:42:42.918Z,97783.84
2023-02-12T00:45:09.647Z,97787.97
2023-02-12T00:47:36.080Z,97781.06
2023-02-12T00:50:02.573Z,97781.69
2023-02-12T00:52:28.988Z,97768.03
2023-02-12T00:54:55.425Z,97780.47
2023-02-12T00:57:21.839Z,97791.50
2023-02-12T00:59:49.322Z,97792.31
2023-02-12T01:02:18.076Z,97804.00
2023-02-12T01:04:45.573Z,97772.75
2023-02-12T01:07:12.056Z,97776.16
2023-02-12T01:09:39.152Z,97786.66
2023-02-12T01:12:06.199Z,97780.63
2023-02-12T01:14:32.874Z,97783.06
2023-02-12T01:16:59.321Z,97794.56
2023-02-12T01:19:25.982Z,97777.78
2023-02-12T01:21:52.472Z,97793.31
2023-02-12T01:24:19.082Z,97775.00
2023-02-12T01:26:45.536Z,97789.06
2023-02-12T01:29:12.019Z,97794.72
2023-02-12T01:31:39.504Z,97782.25
2023-02-12T01:34:07.800Z,97803.56
2023-02-12T01:36:34.865Z,97794.88
2023-02-12T01:39:02.962Z,97800.25
2023-02-12T01:41:49.757Z,97800.50
2023-02-12T01:44:22.361Z,97806.69
2023-02-12T01:46:57.280Z,97801.16
2023-02-12T01:49:38.767Z,97791.59
2023-02-12T01:52:15.696Z,97785.97
2023-02-12T01:54:43.008Z,97789.81
2023-02-12T01:57:12.198Z,97788.03
2023-02-12T01:59:41.339Z,97796.03
2023-02-12T02:02:07.922Z,97785.97
2023-02-12T02:04:41.900Z,97780.38
2023-02-12T02:07:12.057Z,97793.50
2023-02-12T02:09:39.724Z,97781.38
2023-02-12T02:12:25.502Z,97775.28
2023-02-12T02:14:56.337Z,97777.69
2023-02-12T02:17:31.805Z,97792.66
2023-02-12T02:20:04.190Z,97791.69
2023-02-12T02:22:55.012Z,97789.59
2023-02-12T02:25:36.265Z,97785.38
2023-02-12T02:28:30.729Z,97774.69
2023-02-12T02:31:12.538Z,97780.53
2023-02-12T02:33:54.821Z,97764.56
2023-02-12T02:37:00.106Z,97766.25
2023-02-12T02:39:41.640Z,97767.50
2023-02-12T02:42:15.897Z,97758.00
2023-02-12T02:44:50.642Z,97769.22
2023-02-12T02:47:20.612Z,97760.59
2023-02-12T02:50:06.013Z,97762.38
2023-02-12T02:52:40.115Z,97751.72
2023-02-12T02:55:09.310Z,97765.44
2023-02-12T02:57:47.418Z,97746.06
2023-02-12T03:00:31.989Z,97749.09
2023-02-12T03:03:06.841Z,97756.94
2023-02-12T03:05:39.930Z,97767.19
2023-02-12T03:08:23.893Z,97776.16
2023-02-12T03:10:55.552Z,97785.66
2023-02-12T03:13:25.897Z,97773.34
2023-02-12T03:15:56.131Z,97783.69
2023-02-12T03:18:28.962Z,97777.47
2023-02-12T03:21:01.276Z,97781.06
2023-02-12T03:23:42.661Z,97788.91
2023-02-12T03:26:13.777Z,97787.03
2023-02-12T03:28:40.551Z,97783.97
2023-02-12T03:31:30.300Z,97795.28
2023-02-12T03:34:24.642Z,97788.22
2023-02-12T03:37:03.238Z,97797.72
2023-02-12T03:39:50.612Z,97782.09
2023-02-12T03:42:27.067Z,97791.97
2023-02-12T03:44:59.896Z,97796.47
2023-02-12T03:47:42.917Z,97789.19
2023-02-12T03:50:19.609Z,97802.47
2023-02-12T03:52:47.208Z,97790.81
2023-02-12T03:55:14.479Z,97781.75
2023-02-12T03:57:45.551Z,97784.69
2023-02-12T04:00:19.283Z,97788.56
2023-02-12T04:02:47.287Z,97799.63
2023-02-12T04:05:31.877Z,97800.25
2023-02-12T04:08:00.195Z,97800.88
2023-02-12T04:10:45.933Z,97807.44
2023-02-12T04:13:15.116Z,97818.13
2023-02-12T04:16:19.486Z,97824.16
2023-02-12T04:18:49.518Z,97818.13
2023-02-12T04:21:43.694Z,97813.66
2023-02-12T04:24:42.510Z,97818.50
2023-02-12T04:27:24.685Z,97827.94
2023-02-12T04:30:13.315Z,97824.16
2023-02-12T04:32:53.909Z,97816.88
2023-02-12T04:35:31.003Z,97819.31
2023-02-12T04:38:08.610Z,97816.63
2023-02-12T04:40:36.232Z,97817.88
2023-02-12T04:43:02.903Z,97817.03
2023-02-12T04:45:33.083Z,97820.19
2023-02-12T04:48:00.810Z,97811.13
2023-02-12T04:50:37.101Z,97831.16
2023-02-12T04:53:03.628Z,97822.25
2023-02-12T04:55:30.066Z,97831.34
2023-02-12T04:57:56.507Z,97832.34
2023-02-12T05:00:23.075Z,97846.41
2023-02-12T05:02:49.495Z,97818.25
2023-02-12T05:05:16.028Z,97826.31
2023-02-12T05:07:42.539Z,97829.53
2023-02-12T05:10:09.451Z,97833.97
2023-02-12T05:12:35.879Z,97840.59
2023-02-12T05:15:02.329Z,97839.75
2023-02-12T05:17:28.817Z,97840.25
2023-02-12T05:19:55.261Z,97836.81
2023-02-12T05:22:21.860Z,97851.91
2023-02-12T05:24:48.319Z,97840.78
2023-02-12T05:27:15.078Z,97832.06
2023-02-12T05:29:41.583Z,97848.41
2023-02-12T05:32:08.546Z,97851.28
2023-02-12T05:34:35.544Z,97849.41
2023-02-12T05:37:02.142Z,97853.00
2023-02-12T05:39:28.690Z,97871.53
2023-02-12T05:41:55.368Z,97860.19
2023-02-12T05:44:21.874Z,97847.91
2023-02-12T05:46:48.465Z,97864.03
2023-02-12T05:49:15.024Z,97845.91
2023-02-12T05:51:41.515Z,97855.97
2023-02-12T05:54:08.131Z,97855.53
2023-02-12T05:56:43.460Z,97866.56
2023-02-12T05:59:18.378Z,97860.91
2023-02-12T06:01:47.597Z,97846.78
2023-02-12T06:04:23.832Z,97859.91
2023-02-12T06:06:52.124Z,97869.34
2023-02-12T06:09:18.718Z,97869.34
2023-02-12T06:11:45.519Z,97871.16
2023-02-12T06:14:18.189Z,97871.16
2023-02-12T06:16:51.005Z,97874.13
2023-02-12T06:19:19.018Z,97868.09
2023-02-12T06:21:46.136Z,97870.88
2023-02-12T06:24:14.426Z,97868.00
2023-02-12T06:26:40.960Z,97867.19
2023-02-12T06:29:07.413Z,97869.63
2023-02-12T06:31:36.497Z,97879.59
2023-02-12T06:34:09.351Z,97887.16
2023-02-12T06:36:38.078Z,97879.06
2023-02-12T06:39:05.218Z,97870.72
2023-02-12T06:41:31.761Z,97884.47
2023-02-12T06:43:58.528Z,97878.81
2023-02-12T06:46:25.520Z,97886.88
2023-02-12T06:48:56.712Z,97880.78
2023-02-12T06:51:24.059Z,97892.47
2023-02-12T06:53:52.050Z,97900.38
2023-02-12T06:56:19.443Z,97895.25
2023-02-12T06:58:53.467Z,97873.06
2023-02-12T07:01:23.432Z,97890.84
2023-02-12T07:03:55.922Z,97887.50
2023-02-12T07:06:23.547Z,97897.31
2023-02-12T07:08:50.443Z,97894.34
2023-02-12T07:11:17.573Z,97886.00
2023-02-12T07:13:45.236Z,97876.81
2023-02-12T07:16:14.672Z,97897.56
2023-02-12T07:18:42.406Z,97900.91
2023-02-12T07:21:09.641Z,97901.72
2023-02-12T07:23:36.810Z,97890.44
2023-02-12T07:26:09.170Z,97897.28
2023-02-12T07:28:38.495Z,97894.41
2023-02-12T07:31:17.231Z,97892.81
2023-02-12T07:33:44.537Z,97889.38
2023-02-12T07:36:14.273Z,97889.66
2023-02-12T07:38:41.511Z,97892.59
2023-02-12T07:41:17.011Z,97872.47
2023-02-12T07:43:45.322Z,97873.47
2023-02-12T07:46:29.743Z,97892.72
2023-02-12T07:48:58.274Z,97874.84
2023-02-12T07:51:25.408Z,97870.34
2023-02-12T07:53:52.447Z,97878.75
2023-02-12T07:56:25.275Z,97870.94
2023-02-12T07:58:53.605Z,97886.81
2023-02-12T08:01:30.893Z,97885.03
2023-02-12T08:04:16.042Z,97861.63
2023-02-12T08:06:45.404Z,97891.75
2023-02-12T08:09:16.452Z,97885.91
2023-02-12T08:11:43.887Z,97890.16
2023-02-12T08:14:12.408Z,97891.25
2023-02-12T08:16:41.511Z,97878.34
2023-02-12T08:19:18.148Z,97881.06
2023-02-12T08:21:48.931Z,97887.41
2023-02-12T08:24:18.012Z,97882.06
2023-02-12T08:26:46.809Z,97877.59
2023-02-12T08:29:15.633Z,97892.78
2023-02-12T08:31:44.526Z,97889.78
2023-02-12T08:34:19.691Z,97882.88
2023-02-12T08:36:47.494Z,97882.19
2023-02-12T08:39:14.623Z,97872.13
2023-02-12T08:41:44.126Z,97859.69
2023-02-12T08:44:12.136Z,97871.94
2023-02-12T08:46:42.814Z,97884.44
2023-02-12T08:49:13.842Z,97868.34
2023-02-12T08:51:42.996Z,97882.44
2023-02-12T08:54:14.736Z,97887.63
2023-02-12T08:56:42.228Z,97883.81
2023-02-12T08:59:10.622Z,97886.63
2023-02-12T09:01:41.688Z,97879.84
2023-02-12T09:04:28.692Z,97882.47
2023-02-12T09:06:55.969Z,97881.50
2023-02-12T09:09:24.773Z,97878.25
2023-02-12T09:11:51.493Z,97890.34
2023-02-12T09:14:23.671Z,97889.59
2023-02-12T09:16:53.087Z,97885.59
2023-02-12T09:19:20.367Z,97881.00
2023-02-12T09:21:53.932Z,97890.84
2023-02-12T09:24:21.651Z,97889.66
2023-02-12T09:26:48.082Z,97885.22
2023-02-12T09:29:14.565Z,97872.34
2023-02-12T09:31:41.156Z,97894.13
2023-02-12T09:34:08.216Z,97875.97
2023-02-12T09:36:36.041Z,97884.91
2023-02-12T09:39:05.414Z,97893.44
2023-02-12T09:41:47.004Z,97885.84
2023-02-12T09:44:43.706Z,97896.50
2023-02-12T09:47:31.235Z,97887.44
2023-02-12T09:50:06.038Z,97893.53
2023-02-12T09:52:34.008Z,97885.47
2023-02-12T09:55:00.847Z,97881.06
2023-02-12T09:57:33.327Z,97883.28
2023-02-12T10:00:07.324Z,97894.41
2023-02-12T10:02:39.096Z,97888.22
2023-02-12T10:05:15.210Z,97887.47
2023-02-12T10:07:53.794Z,97895.78
2023-02-12T10:10:42.139Z,97900.59
2023-02-12T10:13:36.642Z,97897.56
2023-02-12T10:16:14.468Z,97895.59
2023-02-12T10:18:49.812Z,97899.41
2023-02-12T10:21:22.400Z,97901.25
2023-02-12T10:24:20.960Z,97882.50
2023-02-12T10:26:49.870Z,97882.09
2023-02-12T10:29:21.796Z,97894.00
2023-02-12T10:34:38.474Z,97892.38
2023-02-12T10:37:32.586Z,97894.19
2023-02-12T10:40:05.038Z,97881.09
2023-02-12T10:42:47.542Z,97889.19
2023-02-12T10:45:16.831Z,97883.72
2023-02-12T10:47:45.519Z,97887.78
2023-02-12T10:50:44.791Z,97888.38
2023-02-12T10:53:21.500Z,97894.03
2023-02-12T10:55:48.241Z,97874.25
2023-02-12T10:58:21.746Z,97895.22
2023-02-12T11:00:56.853Z,97880.94
2023-02-12T11:03:28.340Z,97882.94
2023-02-12T11:05:55.411Z,97891.22
2023-02-12T11:08:35.140Z,97896.03
2023-02-12T11:11:19.678Z,97876.50
2023-02-12T11:14:07.103Z,97871.88
2023-02-12T11:16:36.908Z,97881.31
2023-02-12T11:19:06.204Z,97861.78
2023-02-12T11:21:34.113Z,97853.91
2023-02-12T11:24:29.624Z,97870.00
2023-02-12T11:27:29.283Z,97859.44
2023-02-12T11:30:34.888Z,97869.63
2023-02-12T11:33:28.026Z,97863.75
2023-02-12T11:36:06.874Z,97869.59
2023-02-12T11:38:37.549Z,97859.44
2023-02-12T11:41:08.795Z,97844.34
2023-02-12T11:43:39.385Z,97848.53
2023-02-12T11:46:08.580Z,97851.50
2023-02-12T11:48:40.417Z,97851.84
2023-02-12T11:51:17.471Z,97850.63
2023-02-12T11:53:49.648Z,97857.69
2023-02-12T11:56:16.831Z,97844.22
2023-02-12T11:58:44.839Z,97856.00
2023-02-12T12:01:23.410Z,97852.22
2023-02-12T12:03:58.763Z,97855.66
2023-02-12T12:06:37.117Z,97846.56
2023-02-12T12:09:17.949Z,97838.44
2023-02-12T12:11:57.630Z,97833.38
2023-02-12T12:14:55.724Z,97833.16
2023-02-12T12:17:49.006Z,97841.69
2023-02-12T12:20:23.862Z,97840.28
2023-02-12T12:22:58.791Z,97832.31
2023-02-12T12:25:33.251Z,97825.81
2023-02-12T12:28:21.291Z,97837.78
2023-02-12T12:31:06.404Z,97830.81
2023-02-12T12:33:46.372Z,97818.94
2023-02-12T12:36:27.466Z,97827.22
2023-02-12T12:39:23.202Z,97833.19
2023-02-12T12:42:28.404Z,97824.88
2023-02-12T12:45:17.100Z,97813.53
2023-02-12T12:48:08.087Z,97815.28
2023-02-12T12:50:40.356Z,97818.13
2023-02-12T12:53:28.352Z,97820.81
2023-02-12T12:56:10.537Z,97823.44
2023-02-12T12:59:04.616Z,97806.41
2023-02-12T13:01:48.753Z,97809.28
2023-02-12T13:04:43.640Z,97813.28
2023-02-12T13:07:27.398Z,97822.06
2023-02-12T13:10:13.108Z,97811.38
2023-02-12T13:12:54.050Z,97816.03
2023-02-12T13:15:44.735Z,97817.75
2023-02-12T13:18:26.412Z,97809.31
2023-02-12T13:21:11.114Z,97817.44
2023-02-12T13:24:03.194Z,97815.09
2023-02-12T13:26:37.323Z,97801.41
2023-02-12T13:29:26.040Z,97810.97
2023-02-12T13:32:29.327Z,97813.91
2023-02-12T13:34:57.579Z,97801.22
2023-02-12T13:37:45.043Z,97821.66
2023-02-12T13:40:21.084Z,97815.63
2023-02-12T13:43:00.988Z,97811.25
2023-02-12T13:45:40.851Z,97809.75
2023-02-12T13:48:37.834Z,97814.13
2023-02-12T13:51:24.313Z,97799.63
2023-02-12T13:53:59.950Z,97812.91
2023-02-12T13:56:38.915Z,97803.56
2023-02-12T13:59:37.118Z,97809.31
2023-02-12T14:02:12.637Z,97809.69
2023-02-12T14:04:44.278Z,97808.13
2023-02-12T14:07:13.964Z,97784.84
2023-02-12T14:09:44.420Z,97803.19
2023-02-12T14:12:27.017Z,97806.94
2023-02-12T14:15:10.985Z,97811.06
2023-02-12T14:17:37.420Z,97811.50
2023-02-12T14:20:27.210Z,97805.66
2023-02-12T14:23:12.217Z,97808.03
2023-02-12T14:25:56.155Z,97803.41
2023-02-12T14:28:25.667Z,97802.38
2023-02-12T14:31:28.809Z,97802.25
2023-02-12T14:34:07.609Z,97802.94
2023-02-12T14:36:38.834Z,97808.03
2023-02-12T14:39:26.992Z,97806.44
2023-02-12T14:41:55.295Z,97791.94
2023-02-12T14:44:23.164Z,97803.47
2023-02-12T14:47:02.949Z,97802.66
2023-02-12T14:49:38.141Z,97802.91
2023-02-12T14:52:12.582Z,97790.63
2023-02-12T14:54:43.815Z,97792.69
2023-02-12T14:57:24.432Z,97808.38
2023-02-12T14:59:54.751Z,97803.16
2023-02-12T15:02:30.162Z,97785.72
2023-02-12T15:05:01.375Z,97796.94
2023-02-12T15:07:35.752Z,97792.91
2023-02-12T15:10:24.455Z,97792.28
2023-02-12T15:13:12.806Z,97791.53
2023-02-12T15:15:52.767Z,97796.34
2023-02-12T15:18:26.451Z,97783.66
2023-02-12T15:21:11.526Z,97794.00
2023-02-12T15:23:44.004Z,97783.56
2023-02-12T15:26:20.320Z,97782.28
2023-02-12T15:28:50.691Z,97786.19
2023-02-12T15:31:22.547Z,97766.66
2023-02-12T15:33:51.615Z,97777.16
2023-02-12T15:36:21.728Z,97766.84
2023-02-12T15:38:52.272Z,97774.31
2023-02-12T15:41:27.544Z,97784.81
2023-02-12T15:43:54.528Z,97783.81
2023-02-12T15:46:21.077Z,97769.13
2023-02-12T15:48:47.612Z,97771.03
2023-02-12T15:51:14.150Z,97783.72
2023-02-12T15:53:41.508Z,97769.00
2023-02-12T15:56:17.980Z,97777.63
2023-02-12T15:58:56.650Z,97775.59
2023-02-12T16:01:29.620Z,97754.28
2023-02-12T16:03:59.425Z,97778.44
2023-02-12T16:06:28.578Z,97778.06
2023-02-12T16:09:16.983Z,97779.84
2023-02-12T16:11:46.094Z,97757.56
2023-02-12T16:14:44.637Z,97776.06
2023-02-12T16:17:26.108Z,97772.47
2023-02-12T16:20:20.237Z,97761.41
2023-02-12T16:22:49.475Z,97775.53
2023-02-12T16:25:32.107Z,97771.72
2023-02-12T16:28:06.766Z,97779.97
2023-02-12T16:30:42.604Z,97770.31
2023-02-12T16:33:39.804Z,97781.81
2023-02-12T16:36:24.688Z,97783.00
2023-02-12T16:38:56.409Z,97772.53
2023-02-12T16:41:40.790Z,97787.81
2023-02-12T16:44:16.286Z,97792.28
2023-02-12T16:46:52.692Z,97790.66
2023-02-12T16:49:21.507Z,97790.84
2023-02-12T16:51:49.656Z,97795.06
2023-02-12T16:54:33.629Z,97804.94
2023-02-12T16:57:01.139Z,97791.84
2023-02-12T16:59:28.917Z,97792.22
2023-02-12T17:02:06.638Z,97800.66
2023-02-12T17:04:33.051Z,97783.94
2023-02-12T17:06:59.472Z,97780.91
2023-02-12T17:09:25.995Z,97799.22
2023-02-12T17:11:52.408Z,97789.94
2023-02-12T17:14:20.912Z,97805.81
2023-02-12T17:16:47.469Z,97794.09
2023-02-12T17:19:14.027Z,97794.09
2023-02-12T17:21:43.505Z,97802.91
2023-02-12T17:24:26.394Z,97795.59
2023-02-12T17:26:53.802Z,97805.28
2023-02-12T17:29:23.657Z,97810.44
2023-02-12T17:31:50.347Z,97798.28
2023-02-12T17:34:17.068Z,97807.91
2023-02-12T17:36:43.507Z,97805.66
2023-02-12T17:39:12.566Z,97821.59
2023-02-12T17:41:40.529Z,97814.72
2023-02-12T17:44:07.780Z,97815.41
2023-02-12T17:46:34.428Z,97801.47
2023-02-12T17:49:00.933Z,97812.34
2023-02-12T17:51:27.418Z,97803.91
2023-02-12T17:53:53.911Z,97810.09
2023-02-12T17:56:22.910Z,97813.09
2023-02-12T17:58:49.700Z,97808.69
2023-02-12T18:01:19.171Z,97811.91
2023-02-12T18:03:46.055Z,97802.44
2023-02-12T18:06:16.296Z,97803.88
2023-02-12T18:08:43.595Z,97811.75
2023-02-12T18:11:11.296Z,97814.97
2023-02-12T18:13:39.058Z,97814.59
2023-02-12T18:16:07.520Z,97813.13
2023-02-12T18:18:34.191Z,97808.09
2023-02-12T18:21:00.702Z,97798.69
2023-02-12T18:23:27.190Z,97804.47
2023-02-12T18:25:53.637Z,97795.19
2023-02-12T18:28:20.116Z,97807.25
2023-02-12T18:30:46.614Z,97815.47
2023-02-12T18:33:13.152Z,97804.38
2023-02-12T18:35:41.651Z,97801.66
2023-02-12T18:38:08.168Z,97806.88
2023-02-12T18:40:34.603Z,97799.25
2023-02-12T18:43:01.077Z,97783.66
2023-02-12T18:45:27.534Z,97795.94
2023-02-12T18:47:53.982Z,97811.09
2023-02-12T18:50:20.656Z,97809.50
2023-02-12T18:52:47.175Z,97805.03
2023-02-12T18:55:13.604Z,97813.84
2023-02-12T18:57:40.038Z,97804.66
2023-02-12T19:00:07.058Z,97796.59
2023-02-12T19:02:33.495Z,97804.53
2023-02-12T19:04:59.914Z,97798.81
2023-02-12T19:07:27.541Z,97792.38
2023-02-12T19:09:54.118Z,97796.66
2023-02-12T19:12:20.606Z,97795.59
2023-02-12T19:14:47.056Z,97781.72
2023-02-12T19:17:13.580Z,97796.69
2023-02-12T19:19:40.050Z,97780.97
2023-02-12T19:22:06.471Z,97795.22
2023-02-12T19:24:45.877Z,97795.22
2023-02-12T19:27:13.532Z,97796.44
2023-02-12T19:29:40.003Z,97791.78
2023-02-12T19:32:06.752Z,97801.16
2023-02-12T19:34:33.501Z,97793.53
2023-02-12T19:37:00.064Z,97792.09
2023-02-12T19:39:27.414Z,97790.03
2023-02-12T19:41:56.177Z,97797.69
2023-02-12T19:44:24.811Z,97791.66
2023-02-12T19:46:52.145Z,97781.16
2023-02-12T19:49:21.613Z,97801.91
2023-02-12T19:51:49.159Z,97797.31
2023-02-12T19:54:17.355Z,97793.56
2023-02-12T19:56:44.199Z,97797.63
2023-02-12T19:59:13.089Z,97783.84
2023-02-12T20:01:41.048Z,97788.72
2023-02-12T20:04:07.618Z,97783.44
2023-02-12T20:06:36.756Z,97766.47
2023-02-12T20:09:05.734Z,97788.91
2023-02-12T20:11:33.615Z,97783.63
2023-02-12T20:14:02.075Z,97804.13
2023-02-12T20:16:36.179Z,97784.81
2023-02-12T20:19:17.709Z,97804.94
2023-02-12T20:21:44.754Z,97791.19
2023-02-12T20:24:11.704Z,97802.06
2023-02-12T20:26:38.906Z,97804.22
2023-02-12T20:29:05.731Z,97792.97
2023-02-12T20:31:35.883Z,97794.88
2023-02-12T20:34:05.212Z,97796.31
2023-02-12T20:36:34.436Z,97792.94
2023-02-12T20:39:01.332Z,97795.09
2023-02-12T20:41:27.830Z,97790.78
2023-02-12T20:43:56.162Z,97808.19
2023-02-12T20:46:24.419Z,97793.81
2023-02-12T20:48:52.380Z,97815.63
2023-02-12T20:51:21.299Z,97807.00
2023-02-12T20:53:47.947Z,97786.19
2023-02-12T20:56:16.835Z,97807.56
2023-02-12T20:58:44.994Z,97806.50
2023-02-12T21:01:21.540Z,97812.50
2023-02-12T21:03:50.896Z,97826.69
2023-02-12T21:06:18.783Z,97824.00
2023-02-12T21:08:46.253Z,97819.06
2023-02-12T21:11:19.421Z,97820.69
2023-02-12T21:13:58.584Z,97823.75
2023-02-12T21:16:28.695Z,97804.13
2023-02-12T21:18:55.854Z,97826.88
2023-02-12T21:21:28.508Z,97805.31
2023-02-12T21:23:57.456Z,97809.53
2023-02-12T21:26:26.136Z,97792.72
2023-02-12T21:28:53.508Z,97809.19
2023-02-12T21:31:26.442Z,97818.78
2023-02-12T21:33:54.775Z,97814.22
2023-02-12T21:36:24.086Z,97816.34
2023-02-12T21:38:51.823Z,97826.78
2023-02-12T21:41:21.266Z,97765.31
2023-02-12T21:43:53.436Z,97825.69
2023-02-12T21:46:24.848Z,97804.31
2023-02-12T21:48:52.307Z,97815.50
2023-02-12T21:51:23.140Z,97825.78
2023-02-12T21:53:51.813Z,97794.16
2023-02-12T21:56:19.275Z,97836.44
2023-02-12T21:58:46.941Z,97822.31
2023-02-12T22:01:16.580Z,97830.81
2023-02-12T22:03:44.717Z,97836.09
2023-02-12T22:06:13.319Z,97839.91
2023-02-12T22:08:40.305Z,97826.94
2023-02-12T22:11:10.242Z,97836.63
2023-02-12T22:13:37.563Z,97802.94
2023-02-12T22:16:13.413Z,97846.25
2023-02-12T22:18:41.609Z,97835.75
2023-02-12T22:21:13.033Z,97832.13
2023-02-12T22:23:40.434Z,97828.53
2023-02-12T22:26:13.079Z,97841.84
2023-02-12T22:28:48.344Z,97829.41
2023-02-12T22:31:21.870Z,97834.44
2023-02-12T22:33:54.123Z,97832.53
2023-02-12T22:36:21.912Z,97808.03
2023-02-12T22:38:48.881Z,97798.50
2023-02-12T22:41:15.532Z,97750.03
2023-02-12T22:43:42.021Z,97776.22
2023-02-12T22:46:11.231Z,97843.34
2023-02-12T22:48:38.433Z,97843.50
2023-02-12T22:51:20.278Z,97837.72
2023-02-12T22:53:47.417Z,97845.34
2023-02-12T22:56:14.396Z,97821.28
2023-02-12T22:58:41.899Z,97836.78
2023-02-12T23:01:14.087Z,97843.00
2023-02-12T23:03:41.322Z,97839.34
2023-02-12T23:06:14.285Z,97760.13
2023-02-12T23:08:41.368Z,97833.66
2023-02-12T23:11:08.679Z,97830.63
2023-02-12T23:13:36.224Z,97840.13
2023-02-12T23:16:03.542Z,97819.53
2023-02-12T23:18:30.416Z,97841.53
2023-02-12T23:20:57.247Z,97738.94
2023-02-12T23:23:24.024Z,97836.19
2023-02-12T23:25:50.797Z,97843.91
2023-02-12T23:28:17.611Z,97804.59
2023-02-12T23:30:44.275Z,97832.25
2023-02-12T23:33:10.880Z,97807.63
2023-02-12T23:35:37.316Z,97778.28
2023-02-12T23:38:04.467Z,97811.91
2023-02-12T23:40:32.722Z,97828.63
2023-02-12T23:42:59.427Z,97778.44
2023-02-12T23:45:27.026Z,97807.28
2023-02-12T23:47:53.792Z,97788.53
2023-02-12T23:50:21.564Z,97811.84
2023-02-12T23:52:48.638Z,97795.63
2023-02-12T23:55:16.641Z,97714.59
2023-02-12T23:57:43.109Z,97737.47
